Time;durP1;ratioP1;P1;durP2;ratioP2;P2;SDS_P1;SDS_P2;PMS_P1;PMS_P2;Temp;Humidity;BMP_temperature;BMP_pressure;BME280_temperature;BME280_humidity;BME280_pressure;Samples;Min_cycle;Max_cycle;Signal;HPM_P1;HPM_P2
2021/10/06 00:01:25;;;;;;;9.73;7.03;;;16.90;92.00;;;;;;4788469;29;20216;-93
2021/10/06 00:03:51;;;;;;;8.40;7.10;;;16.90;92.00;;;;;;4788170;30;20425;-90
2021/10/06 00:06:17;;;;;;;9.70;7.10;;;16.90;92.00;;;;;;4791474;29;20474;-91
2021/10/06 00:08:43;;;;;;;11.33;7.40;;;16.90;91.90;;;;;;4787435;30;20605;-92
2021/10/06 00:11:09;;;;;;;8.60;7.20;;;16.90;91.90;;;;;;4794952;29;20196;-91
2021/10/06 00:13:35;;;;;;;11.80;7.70;;;16.90;91.80;;;;;;4789362;30;20224;-92
2021/10/06 00:16:01;;;;;;;10.30;7.30;;;16.90;91.70;;;;;;4774927;30;20865;-91
2021/10/06 00:18:27;;;;;;;10.67;7.57;;;17.00;91.80;;;;;;4788211;29;20794;-92
2021/10/06 00:20:53;;;;;;;10.37;7.70;;;17.00;91.70;;;;;;4787682;29;20466;-91
2021/10/06 00:23:19;;;;;;;9.53;7.37;;;17.00;91.60;;;;;;4786313;30;20436;-93
2021/10/06 00:25:45;;;;;;;9.90;7.63;;;16.90;91.50;;;;;;4786622;29;20468;-92
2021/10/06 00:28:11;;;;;;;9.80;6.73;;;17.00;91.60;;;;;;4790580;30;20424;-91
2021/10/06 00:30:37;;;;;;;9.60;7.10;;;17.00;91.60;;;;;;4789055;29;20273;-91
2021/10/06 00:33:02;;;;;;;12.63;7.87;;;17.00;91.50;;;;;;4786067;30;20488;-93
2021/10/06 00:35:28;;;;;;;13.63;8.40;;;17.00;91.60;;;;;;4786603;29;20247;-91
2021/10/06 00:37:54;;;;;;;8.80;7.50;;;17.00;91.60;;;;;;4788011;30;20511;-92
2021/10/06 00:40:20;;;;;;;10.70;7.00;;;17.00;91.50;;;;;;4788472;29;20483;-92
2021/10/06 00:42:46;;;;;;;14.47;7.97;;;17.00;91.40;;;;;;4799837;30;20192;-92
2021/10/06 00:45:11;;;;;;;8.83;6.83;;;16.90;91.30;;;;;;4796034;29;20211;-92
2021/10/06 00:47:38;;;;;;;8.90;7.60;;;16.90;91.20;;;;;;4786531;30;20192;-91
2021/10/06 00:50:04;;;;;;;11.60;8.00;;;16.90;91.10;;;;;;4785592;29;20219;-93
2021/10/06 00:52:30;;;;;;;9.00;7.67;;;16.90;91.10;;;;;;4786337;30;20428;-93
2021/10/06 00:54:56;;;;;;;10.80;7.80;;;16.90;91.00;;;;;;4785669;29;21049;-91
2021/10/06 00:57:21;;;;;;;7.43;6.73;;;16.90;91.10;;;;;;4787817;30;20295;-92
2021/10/06 00:59:47;;;;;;;13.40;7.37;;;16.80;90.90;;;;;;4772244;30;20211;-91
2021/10/06 01:02:13;;;;;;;7.70;6.87;;;16.90;91.00;;;;;;4787806;30;20707;-92
2021/10/06 01:04:39;;;;;;;8.83;7.00;;;16.80;90.90;;;;;;4787913;29;20448;-92
2021/10/06 01:07:05;;;;;;;18.80;8.23;;;16.80;90.90;;;;;;4787685;30;20439;-92
2021/10/06 01:09:32;;;;;;;11.67;9.10;;;16.80;90.90;;;;;;4794591;29;20421;-93
2021/10/06 01:11:59;;;;;;;11.03;7.97;;;16.80;90.80;;;;;;4786249;30;20195;-92
2021/10/06 01:14:26;;;;;;;9.70;6.73;;;16.80;90.80;;;;;;4785799;30;20527;-91
2021/10/06 01:16:53;;;;;;;8.30;7.00;;;16.80;90.90;;;;;;4793685;30;20864;-92
2021/10/06 01:19:28;;;;;;;8.60;7.27;;;16.80;90.90;;;;;;4787235;30;20439;-91
2021/10/06 01:21:55;;;;;;;11.10;7.03;;;16.80;91.10;;;;;;4786390;30;20431;-93
2021/10/06 01:24:23;;;;;;;9.83;7.20;;;16.70;91.00;;;;;;4786238;30;20440;-92
2021/10/06 01:26:48;;;;;;;13.23;7.90;;;16.70;91.00;;;;;;4786890;29;20506;-91
2021/10/06 01:29:15;;;;;;;9.40;8.47;;;16.70;90.90;;;;;;4786407;30;20795;-91
2021/10/06 01:31:42;;;;;;;8.03;7.20;;;16.70;90.90;;;;;;4773268;30;20586;-92
2021/10/06 01:34:09;;;;;;;10.67;7.23;;;16.70;90.90;;;;;;4785950;30;20482;-93
2021/10/06 01:36:36;;;;;;;10.50;6.97;;;16.70;90.70;;;;;;4786336;30;20432;-92
2021/10/06 01:39:03;;;;;;;14.40;8.10;;;16.70;90.70;;;;;;4786362;30;20453;-92
2021/10/06 01:41:32;;;;;;;10.40;7.47;;;16.70;90.70;;;;;;4786474;30;20451;-91
2021/10/06 01:43:59;;;;;;;8.03;7.23;;;16.70;90.50;;;;;;4793407;30;20486;-92
2021/10/06 01:46:25;;;;;;;12.07;8.30;;;16.70;90.30;;;;;;4792557;29;20467;-92
2021/10/06 01:48:50;;;;;;;10.13;7.00;;;16.70;90.40;;;;;;4784517;30;20437;-91
2021/10/06 01:51:16;;;;;;;13.33;7.20;;;16.70;90.20;;;;;;4784555;29;20261;-93
2021/10/06 01:53:42;;;;;;;10.47;6.80;;;16.70;90.10;;;;;;4785343;30;20293;-91
2021/10/06 01:56:07;;;;;;;16.53;7.57;;;16.70;90.10;;;;;;4785260;29;20212;-91
2021/10/06 01:58:33;;;;;;;9.70;6.80;;;16.70;90.10;;;;;;4773723;30;20237;-92
2021/10/06 02:01:00;;;;;;;16.57;7.20;;;16.70;90.10;;;;;;4773347;30;20227;-92
2021/10/06 02:03:26;;;;;;;12.17;8.07;;;16.70;90.00;;;;;;4788388;30;20443;-92
2021/10/06 02:05:52;;;;;;;18.53;8.27;;;16.70;90.00;;;;;;4788011;29;20494;-91
2021/10/06 02:08:18;;;;;;;12.23;7.70;;;16.70;89.90;;;;;;4779721;30;20420;-92
2021/10/06 02:10:45;;;;;;;12.97;7.70;;;16.70;89.90;;;;;;4793936;29;20460;-91
2021/10/06 02:13:13;;;;;;;13.83;7.80;;;16.70;90.00;;;;;;4774697;30;20220;-92
2021/10/06 02:15:39;;;;;;;12.97;8.10;;;16.70;90.00;;;;;;4773264;30;20487;-91
2021/10/06 02:18:05;;;;;;;14.53;7.53;;;16.70;90.00;;;;;;4788098;30;20493;-92
2021/10/06 02:20:31;;;;;;;10.40;7.30;;;16.70;89.90;;;;;;4789447;29;20470;-91
2021/10/06 02:22:57;;;;;;;15.40;8.20;;;16.70;90.00;;;;;;4789714;30;20192;-92
2021/10/06 02:25:23;;;;;;;13.80;8.40;;;16.70;90.00;;;;;;4789139;29;20456;-91
2021/10/06 02:27:49;;;;;;;10.33;7.20;;;16.70;89.70;;;;;;4796589;30;20431;-92
2021/10/06 02:30:15;;;;;;;10.60;7.77;;;16.70;89.80;;;;;;4753683;29;1295806;-92
2021/10/06 02:32:42;;;;;;;13.53;8.17;;;16.70;90.10;;;;;;4774106;30;20203;-92
2021/10/06 02:35:09;;;;;;;9.97;7.53;;;16.70;90.00;;;;;;4788910;29;20448;-92
2021/10/06 02:37:37;;;;;;;18.37;9.20;;;16.70;90.00;;;;;;4787978;30;20935;-91
2021/10/06 02:40:05;;;;;;;12.77;7.37;;;16.70;90.00;;;;;;4788697;29;20491;-92
2021/10/06 02:42:31;;;;;;;11.30;7.53;;;16.70;90.00;;;;;;4788248;30;20462;-91
2021/10/06 02:44:57;;;;;;;9.80;7.70;;;16.70;90.00;;;;;;4788359;29;20551;-92
2021/10/06 02:47:23;;;;;;;9.70;7.33;;;16.70;90.00;;;;;;4789505;30;20428;-92
2021/10/06 02:49:49;;;;;;;9.20;6.90;;;16.60;90.10;;;;;;4790868;29;20927;-92
2021/10/06 02:52:15;;;;;;;9.03;7.30;;;16.60;90.00;;;;;;4788552;30;20541;-92
2021/10/06 02:54:40;;;;;;;9.80;7.40;;;16.60;90.10;;;;;;4790381;29;20231;-91
2021/10/06 02:57:06;;;;;;;11.20;8.10;;;16.60;90.10;;;;;;4790095;30;20507;-92
2021/10/06 02:59:32;;;;;;;9.33;7.60;;;16.60;90.10;;;;;;4792019;29;20815;-92
2021/10/06 03:01:58;;;;;;;13.97;7.60;;;16.50;90.10;;;;;;4792772;30;20646;-92
2021/10/06 03:04:24;;;;;;;11.50;7.27;;;16.50;90.60;;;;;;4791106;30;20467;-92
2021/10/06 03:06:50;;;;;;;14.17;8.07;;;16.50;90.30;;;;;;4788949;30;20192;-91
2021/10/06 03:09:16;;;;;;;8.33;7.27;;;16.50;90.40;;;;;;4773736;30;20471;-93
2021/10/06 03:11:43;;;;;;;10.13;7.30;;;16.50;90.40;;;;;;4789477;30;20436;-92
2021/10/06 03:14:09;;;;;;;7.67;6.87;;;16.50;90.40;;;;;;4790193;30;20864;-92
2021/10/06 03:16:35;;;;;;;13.00;7.77;;;16.50;90.50;;;;;;4796660;30;20428;-91
2021/10/06 03:19:01;;;;;;;12.40;8.70;;;16.50;90.90;;;;;;4808152;29;20440;-92
2021/10/06 03:21:26;;;;;;;11.23;6.87;;;16.50;90.70;;;;;;4792158;29;20275;-92
2021/10/06 03:23:52;;;;;;;9.30;7.67;;;16.50;90.70;;;;;;4789130;30;20195;-92
2021/10/06 03:26:18;;;;;;;9.10;6.50;;;16.50;90.70;;;;;;4792033;29;20216;-92
2021/10/06 03:28:44;;;;;;;8.33;7.20;;;16.40;90.80;;;;;;4774616;30;20192;-91
2021/10/06 03:31:10;;;;;;;12.20;9.30;;;16.40;90.90;;;;;;4786942;29;20496;-92
2021/10/06 03:33:35;;;;;;;10.97;7.37;;;16.40;91.00;;;;;;4788175;30;20250;-91
2021/10/06 03:36:01;;;;;;;8.40;7.60;;;16.40;91.00;;;;;;4775335;30;20212;-92
2021/10/06 03:38:27;;;;;;;10.30;7.03;;;16.40;91.10;;;;;;4791249;30;20420;-90
2021/10/06 03:40:53;;;;;;;12.00;7.90;;;16.30;91.10;;;;;;4791790;29;20302;-92
2021/10/06 03:43:18;;;;;;;9.33;7.40;;;16.30;91.20;;;;;;4791305;30;20235;-92
2021/10/06 03:45:44;;;;;;;8.10;6.97;;;16.30;91.50;;;;;;4789562;29;20227;-92
2021/10/06 03:48:10;;;;;;;7.00;6.40;;;16.30;91.30;;;;;;4790283;30;20184;-91
2021/10/06 03:50:36;;;;;;;8.40;7.50;;;16.30;91.30;;;;;;4797681;29;20208;-90
2021/10/06 03:53:03;;;;;;;8.60;7.77;;;16.20;91.30;;;;;;4802020;29;20231;-91
2021/10/06 03:55:29;;;;;;;9.07;6.53;;;16.20;91.40;;;;;;4789094;29;20266;-92
2021/10/06 03:57:55;;;;;;;8.77;7.10;;;16.20;91.50;;;;;;4788144;30;20957;-92
2021/10/06 04:00:21;;;;;;;10.03;7.90;;;16.20;91.50;;;;;;4794931;29;20460;-92
2021/10/06 04:02:47;;;;;;;12.60;8.10;;;16.20;91.60;;;;;;4786373;30;20361;-93
2021/10/06 04:05:13;;;;;;;9.63;6.80;;;16.20;91.60;;;;;;4786295;29;20456;-92
2021/10/06 04:07:38;;;;;;;11.20;7.37;;;16.30;91.80;;;;;;4790026;30;20184;-92
2021/10/06 04:10:05;;;;;;;7.87;6.80;;;16.30;91.70;;;;;;4788441;29;20543;-93
2021/10/06 04:12:32;;;;;;;11.10;7.97;;;16.30;91.70;;;;;;4786680;30;20187;-91
2021/10/06 04:14:58;;;;;;;7.30;6.50;;;16.20;91.80;;;;;;4786137;29;20508;-91
2021/10/06 04:17:24;;;;;;;9.60;7.73;;;16.20;92.10;;;;;;4773547;30;20420;-91
2021/10/06 04:19:49;;;;;;;10.07;7.03;;;16.20;91.80;;;;;;4772016;30;20743;-91
2021/10/06 04:22:15;;;;;;;14.80;7.47;;;16.20;91.80;;;;;;4786015;29;20243;-92
2021/10/06 04:24:41;;;;;;;7.93;6.53;;;16.20;91.80;;;;;;4773717;30;20200;-92
2021/10/06 04:27:07;;;;;;;10.13;7.00;;;16.20;91.90;;;;;;4787700;29;20172;-92
2021/10/06 04:29:33;;;;;;;10.07;7.37;;;16.20;91.90;;;;;;4787446;29;20543;-91
2021/10/06 04:31:59;;;;;;;8.57;7.67;;;16.20;92.00;;;;;;4787520;29;20242;-91
2021/10/06 04:34:24;;;;;;;12.70;7.17;;;16.20;92.00;;;;;;4787895;29;20227;-91
2021/10/06 04:36:50;;;;;;;12.57;7.80;;;16.20;92.00;;;;;;4803103;29;20216;-92
2021/10/06 04:39:16;;;;;;;9.77;7.70;;;16.30;92.00;;;;;;4806955;29;20191;-92
2021/10/06 04:41:41;;;;;;;11.60;7.20;;;16.30;92.00;;;;;;4793071;29;20196;-92
2021/10/06 04:44:07;;;;;;;11.20;7.30;;;16.30;92.00;;;;;;4773196;30;20190;-91
2021/10/06 04:46:33;;;;;;;10.10;6.87;;;16.30;91.90;;;;;;4776421;30;20556;-91
2021/10/06 04:49:01;;;;;;;9.40;7.30;;;16.30;92.00;;;;;;4771315;30;20195;-93
2021/10/06 04:51:27;;;;;;;7.57;6.80;;;16.30;91.90;;;;;;4769200;30;20416;-91
2021/10/06 04:53:54;;;;;;;11.07;7.30;;;16.30;91.90;;;;;;4769259;30;20484;-92
2021/10/06 04:56:20;;;;;;;7.63;6.27;;;16.30;92.00;;;;;;4770289;30;20215;-91
2021/10/06 04:58:45;;;;;;;11.37;6.70;;;16.20;91.90;;;;;;4785059;29;20439;-91
2021/10/06 05:01:12;;;;;;;9.07;6.27;;;16.30;92.00;;;;;;4771622;30;20439;-91
2021/10/06 05:03:37;;;;;;;7.40;6.67;;;16.20;91.90;;;;;;4774759;30;20275;-91
2021/10/06 05:06:03;;;;;;;11.13;6.87;;;16.20;92.00;;;;;;4770814;30;20499;-90
2021/10/06 05:08:29;;;;;;;9.10;6.57;;;16.20;92.00;;;;;;4786972;30;20256;-91
2021/10/06 05:10:55;;;;;;;8.40;6.90;;;16.20;92.00;;;;;;4772071;30;20264;-91
2021/10/06 05:13:21;;;;;;;10.77;7.03;;;16.20;92.10;;;;;;4787196;29;20223;-91
2021/10/06 05:15:47;;;;;;;11.93;7.40;;;16.20;92.10;;;;;;4776559;30;20487;-93
2021/10/06 05:18:13;;;;;;;8.30;6.40;;;16.20;92.20;;;;;;4788593;30;20436;-91
2021/10/06 05:20:38;;;;;;;13.73;6.77;;;16.20;92.20;;;;;;4789319;29;20378;-90
2021/10/06 05:23:04;;;;;;;10.00;6.97;;;16.20;92.10;;;;;;4799196;29;20188;-93
2021/10/06 05:25:30;;;;;;;9.10;6.63;;;16.20;92.30;;;;;;4790719;29;20212;-93
2021/10/06 05:27:56;;;;;;;9.90;6.80;;;16.20;92.20;;;;;;4786128;29;20452;-91
2021/10/06 05:30:22;;;;;;;7.73;6.90;;;16.20;92.20;;;;;;4783057;29;20255;-92
2021/10/06 05:32:51;;;;;;;8.87;6.70;;;16.20;92.20;;;;;;4790125;29;21033;-93
2021/10/06 05:35:18;;;;;;;7.37;6.57;;;16.20;92.30;;;;;;4768053;30;21064;-93
2021/10/06 05:37:45;;;;;;;8.30;7.03;;;16.10;92.50;;;;;;4784844;30;20459;-91
2021/10/06 05:40:11;;;;;;;8.20;7.33;;;16.10;92.50;;;;;;4769718;30;20553;-93
2021/10/06 05:42:37;;;;;;;9.33;8.20;;;16.10;92.70;;;;;;4792713;30;20492;-92
2021/10/06 05:45:03;;;;;;;7.53;6.70;;;16.10;92.60;;;;;;4796096;29;20494;-93
2021/10/06 05:47:29;;;;;;;12.53;8.00;;;16.10;92.60;;;;;;4786825;30;20237;-92
2021/10/06 05:49:54;;;;;;;11.17;6.83;;;16.10;92.80;;;;;;4784827;29;20514;-93
2021/10/06 05:52:21;;;;;;;10.23;7.40;;;16.00;92.70;;;;;;4788890;30;20247;-92
2021/10/06 05:54:48;;;;;;;9.20;6.23;;;16.00;92.60;;;;;;4789518;29;20227;-91
2021/10/06 05:57:13;;;;;;;9.53;6.80;;;16.00;92.50;;;;;;4782427;30;20420;-92
2021/10/06 05:59:39;;;;;;;12.83;7.30;;;16.00;92.60;;;;;;4767161;30;20460;-91
2021/10/06 06:02:06;;;;;;;8.93;8.00;;;16.00;92.70;;;;;;4781619;30;20195;-91
2021/10/06 06:04:32;;;;;;;9.00;7.10;;;16.00;92.50;;;;;;4782573;29;20224;-93
2021/10/06 06:06:58;;;;;;;12.27;7.47;;;16.00;92.50;;;;;;4782500;30;20543;-92
2021/10/06 06:09:24;;;;;;;9.83;6.97;;;16.00;92.50;;;;;;4786339;30;20484;-91
2021/10/06 06:11:51;;;;;;;10.60;7.03;;;16.00;92.60;;;;;;4785504;30;20522;-93
2021/10/06 06:14:18;;;;;;;11.10;7.43;;;16.00;92.60;;;;;;4770760;30;20212;-91
2021/10/06 06:16:44;;;;;;;9.70;7.13;;;16.00;92.60;;;;;;4785773;30;20452;-90
2021/10/06 06:19:10;;;;;;;8.90;6.73;;;16.00;92.60;;;;;;4783800;30;20486;-93
2021/10/06 06:21:36;;;;;;;9.93;6.67;;;16.00;92.50;;;;;;4788406;30;20547;-93
2021/10/06 06:24:10;;;;;;;10.40;6.43;;;16.00;92.50;;;;;;4773030;30;20468;-90
2021/10/06 06:26:36;;;;;;;13.63;8.07;;;15.90;92.50;;;;;;4792886;29;20552;-92
2021/10/06 06:29:03;;;;;;;11.17;7.00;;;15.90;92.50;;;;;;4791617;30;20456;-92
2021/10/06 06:31:29;;;;;;;8.03;6.70;;;15.90;92.60;;;;;;4796016;29;20622;-92
2021/10/06 06:33:54;;;;;;;13.83;7.20;;;15.90;92.80;;;;;;4785243;29;20484;-91
2021/10/06 06:36:20;;;;;;;7.10;6.40;;;15.90;93.10;;;;;;4769938;29;20490;-93
2021/10/06 06:38:46;;;;;;;12.23;8.30;;;15.80;94.00;;;;;;4782506;29;20196;-93
2021/10/06 06:41:12;;;;;;;12.97;8.00;;;15.70;94.80;;;;;;4783641;29;20869;-94
2021/10/06 06:43:38;;;;;;;13.27;8.77;;;15.60;94.90;;;;;;4789491;29;20239;-90
2021/10/06 06:46:04;;;;;;;9.83;6.50;;;15.50;95.20;;;;;;4784425;29;20223;-91
2021/10/06 06:48:30;;;;;;;12.03;7.90;;;15.40;95.60;;;;;;4784170;29;20229;-92
2021/10/06 06:50:57;;;;;;;11.07;7.73;;;15.40;96.10;;;;;;4784941;29;20636;-93
2021/10/06 06:53:27;;;;;;;11.63;8.40;;;15.30;96.90;;;;;;4781977;29;20978;-93
2021/10/06 06:55:55;;;;;;;12.77;8.90;;;15.20;97.80;;;;;;4791135;29;20469;-93
2021/10/06 06:58:22;;;;;;;9.63;7.37;;;15.10;98.30;;;;;;4793944;29;20515;-92
2021/10/06 07:00:49;;;;;;;11.30;8.57;;;15.00;98.40;;;;;;4785513;29;20516;-92
2021/10/06 07:03:15;;;;;;;11.53;9.10;;;15.00;98.70;;;;;;4784694;30;20950;-91
2021/10/06 07:05:42;;;;;;;15.40;8.73;;;14.90;99.20;;;;;;4771332;30;20468;-93
2021/10/06 07:08:08;;;;;;;11.87;8.50;;;14.90;99.70;;;;;;4789313;29;20424;-92
2021/10/06 07:10:34;;;;;;;18.33;9.27;;;14.80;99.70;;;;;;4787206;29;20827;-91
2021/10/06 07:13:00;;;;;;;13.73;7.80;;;14.80;99.60;;;;;;4783021;30;20467;-92
2021/10/06 07:15:26;;;;;;;15.07;9.43;;;14.80;99.80;;;;;;4767308;30;20515;-91
2021/10/06 07:17:51;;;;;;;18.43;9.27;;;14.80;99.90;;;;;;4780963;30;20442;-93
2021/10/06 07:20:17;;;;;;;14.00;9.73;;;14.80;99.90;;;;;;4789984;29;20274;-92
2021/10/06 07:22:47;;;;;;;12.10;8.50;;;14.90;99.90;;;;;;4769668;30;20180;-91
2021/10/06 07:25:13;;;;;;;13.13;8.47;;;14.90;99.90;;;;;;4765854;30;20210;-92
2021/10/06 07:27:39;;;;;;;11.27;8.33;;;14.90;99.90;;;;;;4761990;30;20463;-92
2021/10/06 07:30:05;;;;;;;10.73;8.20;;;14.90;99.90;;;;;;4772817;30;20479;-93
2021/10/06 07:32:31;;;;;;;10.83;8.63;;;14.90;99.90;;;;;;4766684;30;20188;-92
2021/10/06 07:34:57;;;;;;;12.60;7.80;;;14.90;99.90;;;;;;4796813;29;20932;-92
2021/10/06 07:37:23;;;;;;;17.50;10.17;;;15.00;99.90;;;;;;4762835;30;20243;-92
2021/10/06 07:39:49;;;;;;;15.80;7.70;;;15.00;99.90;;;;;;4774339;29;20848;-92
2021/10/06 07:42:16;;;;;;;14.30;8.40;;;15.00;99.90;;;;;;4775281;30;20470;-92
2021/10/06 07:44:43;;;;;;;12.67;8.03;;;15.00;99.90;;;;;;4774237;29;20456;-92
2021/10/06 07:47:09;;;;;;;13.30;8.37;;;15.00;99.90;;;;;;4777155;29;20447;-92
2021/10/06 07:49:34;;;;;;;18.87;10.30;;;15.00;99.90;;;;;;4781323;29;20476;-92
2021/10/06 07:52:00;;;;;;;15.37;9.00;;;15.00;99.90;;;;;;4780992;30;20180;-92
2021/10/06 07:54:26;;;;;;;16.53;9.30;;;14.90;99.90;;;;;;4791600;29;20223;-93
2021/10/06 07:56:52;;;;;;;15.13;9.23;;;14.90;99.90;;;;;;4794975;30;20192;-93
2021/10/06 07:59:18;;;;;;;11.50;8.97;;;14.80;99.90;;;;;;4777824;30;20451;-92
2021/10/06 08:01:43;;;;;;;15.07;9.70;;;14.80;99.90;;;;;;4772641;30;20279;-92
2021/10/06 08:04:10;;;;;;;14.80;9.90;;;14.60;99.90;;;;;;4770844;30;20180;-91
2021/10/06 08:06:36;;;;;;;17.00;9.90;;;14.50;99.90;;;;;;4771157;30;20210;-93
2021/10/06 08:09:05;;;;;;;10.50;9.17;;;14.30;99.90;;;;;;4784608;30;20432;-92
2021/10/06 08:11:32;;;;;;;12.90;10.10;;;14.10;99.90;;;;;;4785012;30;20483;-91
2021/10/06 08:13:58;;;;;;;14.73;10.80;;;13.90;99.90;;;;;;4768138;30;20543;-92
2021/10/06 08:16:24;;;;;;;13.70;10.30;;;13.80;99.90;;;;;;4785893;30;20511;-93
2021/10/06 08:18:49;;;;;;;15.70;10.97;;;13.70;99.90;;;;;;4800168;29;20448;-91
2021/10/06 08:21:16;;;;;;;13.67;9.97;;;13.60;99.90;;;;;;4770924;29;20480;-92
2021/10/06 08:23:42;;;;;;;15.77;11.67;;;13.60;99.90;;;;;;4757329;30;20195;-92
2021/10/06 08:26:07;;;;;;;16.60;10.00;;;13.60;99.90;;;;;;4765328;30;20472;-91
2021/10/06 08:28:33;;;;;;;15.23;11.27;;;13.60;99.90;;;;;;4782384;30;20199;-90
2021/10/06 08:30:59;;;;;;;17.47;10.10;;;13.50;99.90;;;;;;4780233;29;20324;-92
2021/10/06 08:33:25;;;;;;;16.77;10.93;;;13.60;99.90;;;;;;4783776;30;20605;-92
2021/10/06 08:35:51;;;;;;;13.40;10.77;;;13.50;99.90;;;;;;4766739;30;20484;-91
2021/10/06 08:38:17;;;;;;;15.90;11.00;;;13.50;99.90;;;;;;4770699;30;20196;-90
2021/10/06 08:40:43;;;;;;;17.60;11.27;;;13.50;99.90;;;;;;4788466;29;20281;-90
2021/10/06 08:43:10;;;;;;;20.60;13.67;;;13.40;99.90;;;;;;4779156;30;20437;-90
2021/10/06 08:45:36;;;;;;;19.67;13.18;;;13.30;99.90;;;;;;4776806;29;20468;-90
2021/10/06 08:48:05;;;;;;;17.30;12.90;;;13.20;99.90;;;;;;4780926;29;20188;-90
2021/10/06 08:50:31;;;;;;;21.07;12.50;;;13.10;99.90;;;;;;4779931;29;20535;-91
2021/10/06 08:52:57;;;;;;;17.83;12.63;;;13.10;99.90;;;;;;4775632;30;20468;-92
2021/10/06 08:55:28;;;;;;;17.85;12.07;;;13.10;99.90;;;;;;4763158;30;20476;-91
2021/10/06 08:58:05;;;;;;;17.33;11.97;;;13.10;99.90;;;;;;4781391;29;20188;-90
2021/10/06 09:00:31;;;;;;;15.65;11.30;;;13.00;99.90;;;;;;4791265;29;20467;-91
2021/10/06 09:03:07;;;;;;;23.27;11.90;;;13.00;99.90;;;;;;4783147;30;20219;-90
2021/10/06 09:05:33;;;;;;;19.65;12.73;;;12.90;99.90;;;;;;4766923;30;20287;-91
2021/10/06 09:08:07;;;;;;;20.57;13.37;;;12.90;99.90;;;;;;4785207;30;20211;-90
2021/10/06 09:10:35;;;;;;;14.45;11.13;;;12.90;99.90;;;;;;4772067;30;20218;-91
2021/10/06 09:13:07;;;;;;;24.23;12.60;;;12.90;99.90;;;;;;4765534;30;20187;-92
2021/10/06 09:15:45;;;;;;;19.10;12.15;;;12.90;99.90;;;;;;4780387;29;20220;-90
2021/10/06 09:18:17;;;;;;;23.15;13.65;;;12.90;99.90;;;;;;4788257;30;20188;-91
2021/10/06 09:20:43;;;;;;;16.08;11.70;;;12.90;99.90;;;;;;4765455;30;20223;-92
2021/10/06 09:23:11;;;;;;;24.43;13.13;;;12.90;99.90;;;;;;4777083;30;20192;-91
2021/10/06 09:25:48;;;;;;;17.38;11.60;;;12.80;99.90;;;;;;4779012;29;20468;-90
2021/10/06 09:28:34;;;;;;;17.27;12.23;;;12.90;99.90;;;;;;4778536;30;20669;-92
2021/10/06 09:31:00;;;;;;;23.58;13.60;;;12.90;99.90;;;;;;4779380;29;20258;-92
2021/10/06 09:33:47;;;;;;;17.23;11.60;;;12.90;99.90;;;;;;4771548;30;20223;-90
2021/10/06 09:36:25;;;;;;;18.20;12.03;;;12.90;99.90;;;;;;4770543;30;20818;-91
2021/10/06 09:39:08;;;;;;;17.85;12.60;;;13.00;99.90;;;;;;4764746;30;20451;-92
2021/10/06 09:41:36;;;;;;;18.52;13.20;;;13.00;99.90;;;;;;4771158;30;20188;-92
2021/10/06 09:44:16;;;;;;;16.90;11.90;;;13.00;99.90;;;;;;4782083;30;20663;-92
2021/10/06 09:47:02;;;;;;;20.53;11.30;;;13.10;99.90;;;;;;4766870;30;20233;-93
2021/10/06 09:49:36;;;;;;;19.10;12.90;;;13.10;99.90;;;;;;4767224;30;20456;-93
2021/10/06 09:52:29;;;;;;;17.10;12.10;;;13.10;99.90;;;;;;4780590;30;20242;-93
2021/10/06 09:55:06;;;;;;;22.63;12.02;;;13.10;99.90;;;;;;4766805;30;20502;-93
2021/10/06 09:57:37;;;;;;;23.03;11.67;;;13.10;99.90;;;;;;4783921;30;20190;-92
2021/10/06 10:00:11;;;;;;;19.45;12.60;;;13.10;99.90;;;;;;4766243;30;20484;-93
2021/10/06 10:02:37;;;;;;;17.23;11.47;;;13.10;99.90;;;;;;4770471;30;20191;-93
2021/10/06 10:05:05;;;;;;;17.57;11.70;;;13.10;99.90;;;;;;4765067;30;21021;-92
2021/10/06 10:07:31;;;;;;;16.70;11.80;;;13.10;99.90;;;;;;4762246;30;20432;-92
2021/10/06 10:09:57;;;;;;;16.63;12.30;;;13.10;99.90;;;;;;4761900;30;20476;-91
2021/10/06 10:12:28;;;;;;;17.77;10.63;;;13.20;99.90;;;;;;4759142;30;20452;-92
2021/10/06 10:14:54;;;;;;;22.00;12.10;;;13.20;99.90;;;;;;4767563;30;20574;-92
2021/10/06 10:17:21;;;;;;;20.75;12.05;;;13.20;99.90;;;;;;4782703;29;20184;-93
2021/10/06 10:20:00;;;;;;;16.17;10.50;;;13.20;99.90;;;;;;4765747;30;20295;-93
2021/10/06 10:22:31;;;;;;;18.25;12.60;;;13.20;99.90;;;;;;4779035;30;20452;-93
2021/10/06 10:24:57;;;;;;;19.17;11.52;;;13.20;99.90;;;;;;4774024;30;20221;-91
2021/10/06 10:27:25;;;;;;;19.80;12.80;;;13.20;99.90;;;;;;4772398;30;20184;-94
2021/10/06 10:30:04;;;;;;;14.43;10.60;;;13.20;99.90;;;;;;4766561;30;20239;-92
2021/10/06 10:32:45;;;;;;;18.55;15.15;;;13.30;99.90;;;;;;4780994;29;20446;-92
2021/10/06 10:35:15;;;;;;;20.60;13.87;;;13.30;99.90;;;;;;4769585;29;20227;-92
2021/10/06 10:37:53;;;;;;;20.77;11.60;;;13.30;99.90;;;;;;4772396;30;21001;-91
2021/10/06 10:40:34;;;;;;;16.93;11.27;;;13.30;99.90;;;;;;4772415;30;20476;-92
2021/10/06 10:43:16;;;;;;;17.73;12.17;;;13.40;99.90;;;;;;4769270;30;20456;-91
2021/10/06 10:46:00;;;;;;;13.40;11.00;;;13.40;99.90;;;;;;4772582;30;20484;-89
2021/10/06 10:48:31;;;;;;;17.23;10.50;;;13.50;99.90;;;;;;4774123;30;20822;-89
2021/10/06 10:51:00;;;;;;;14.20;10.23;;;13.60;99.90;;;;;;4775786;30;20495;-90
2021/10/06 10:53:50;;;;;;;19.80;10.43;;;13.60;99.90;;;;;;4768215;30;20469;-87
2021/10/06 10:56:40;;;;;;;14.17;9.90;;;13.70;99.90;;;;;;4769644;30;20511;-93
2021/10/06 10:59:18;;;;;;;12.50;10.50;;;13.70;99.90;;;;;;4769385;30;20519;-96
2021/10/06 11:01:50;;;;;;;14.43;10.50;;;13.80;99.90;;;;;;4769387;30;20600;-96
2021/10/06 11:04:27;;;;;;;17.97;11.73;;;13.80;99.90;;;;;;4771678;30;20594;-90
2021/10/06 11:07:11;;;;;;;14.33;10.23;;;13.80;99.90;;;;;;4768329;30;20452;-90
2021/10/06 11:09:39;;;;;;;12.07;8.80;;;13.80;99.90;;;;;;4779915;29;20468;-90
2021/10/06 11:12:05;;;;;;;11.90;10.10;;;13.80;99.90;;;;;;4778983;30;20440;-91
2021/10/06 11:14:45;;;;;;;21.17;11.60;;;13.80;99.90;;;;;;4767035;30;21077;-93
2021/10/06 11:17:14;;;;;;;12.83;10.50;;;13.80;99.90;;;;;;4770130;30;20243;-88
2021/10/06 11:19:42;;;;;;;15.20;10.30;;;13.70;99.90;;;;;;4770596;30;20468;-93
2021/10/06 11:22:23;;;;;;;13.13;9.73;;;13.70;99.90;;;;;;4770695;30;20455;-94
2021/10/06 11:24:55;;;;;;;15.00;10.70;;;13.70;99.90;;;;;;4792680;29;20468;-89
2021/10/06 11:27:23;;;;;;;13.97;10.70;;;13.70;99.90;;;;;;4788999;29;20893;-93
2021/10/06 11:29:52;;;;;;;15.73;11.27;;;13.70;99.90;;;;;;4768404;30;20452;-89
2021/10/06 11:32:19;;;;;;;13.60;11.10;;;13.70;99.90;;;;;;4787679;29;20446;-91
2021/10/06 11:34:50;;;;;;;13.97;10.67;;;13.70;99.90;;;;;;4761233;30;20504;-92
2021/10/06 11:37:24;;;;;;;21.37;14.30;;;13.80;99.90;;;;;;4784860;30;20942;-94
2021/10/06 11:39:51;;;;;;;13.70;10.70;;;13.80;99.90;;;;;;4766130;30;20479;-94
2021/10/06 11:42:18;;;;;;;18.00;11.50;;;13.80;99.90;;;;;;4786134;30;20443;-93
2021/10/06 11:44:46;;;;;;;14.23;10.97;;;13.90;99.90;;;;;;4771926;30;20457;-94
2021/10/06 11:47:16;;;;;;;14.13;10.93;;;13.90;99.90;;;;;;4770856;30;20438;-94
2021/10/06 11:49:49;;;;;;;18.33;11.20;;;13.90;99.90;;;;;;4785377;29;20804;-88
2021/10/06 11:52:20;;;;;;;15.27;11.30;;;13.90;99.90;;;;;;4769878;30;20432;-93
2021/10/06 11:54:47;;;;;;;19.47;11.90;;;14.00;99.90;;;;;;4784194;29;20521;-88
2021/10/06 11:57:14;;;;;;;13.90;11.47;;;14.10;99.90;;;;;;4782251;30;20432;-94
2021/10/06 11:59:46;;;;;;;15.80;11.57;;;14.10;99.90;;;;;;4783483;29;20597;-93
2021/10/06 12:02:16;;;;;;;17.67;12.07;;;14.10;99.90;;;;;;4782202;30;20444;-94
2021/10/06 12:04:46;;;;;;;14.83;10.40;;;14.10;99.90;;;;;;4778945;30;20456;-95
2021/10/06 12:07:18;;;;;;;12.83;10.97;;;14.20;99.90;;;;;;4769686;30;20468;-92
2021/10/06 12:09:46;;;;;;;14.73;12.40;;;14.20;99.90;;;;;;4768644;30;20494;-90
2021/10/06 12:12:15;;;;;;;16.17;12.37;;;14.20;99.90;;;;;;4772867;30;20445;-90
2021/10/06 12:14:47;;;;;;;14.70;12.00;;;14.30;99.90;;;;;;4774257;30;20584;-93
2021/10/06 12:17:24;;;;;;;17.43;12.17;;;14.40;99.90;;;;;;4788870;30;20444;-93
2021/10/06 12:20:00;;;;;;;13.20;11.20;;;14.40;99.90;;;;;;4768287;30;20464;-89
2021/10/06 12:22:47;;;;;;;15.20;11.97;;;14.50;99.90;;;;;;4771078;30;20801;-96
2021/10/06 12:25:21;;;;;;;17.30;12.40;;;14.50;99.90;;;;;;4764059;30;20494;-93
2021/10/06 12:27:51;;;;;;;17.03;11.10;;;14.60;99.90;;;;;;4786629;30;20464;-90
2021/10/06 12:30:22;;;;;;;16.70;11.50;;;14.60;99.90;;;;;;4767872;30;20476;-92
2021/10/06 12:32:51;;;;;;;13.70;11.17;;;14.60;99.90;;;;;;4783517;30;20443;-92
2021/10/06 12:35:20;;;;;;;16.23;11.53;;;14.70;99.90;;;;;;4766396;30;20498;-93
2021/10/06 12:37:49;;;;;;;17.57;11.63;;;14.70;99.90;;;;;;4769122;30;20533;-92
2021/10/06 12:40:33;;;;;;;18.43;11.60;;;14.70;99.90;;;;;;4761071;30;20478;-94